KAFW/AFW METAR and TAF weather

Enter ICAO airport designator
Station Type Date Time Source
KAFW METAR 2020/04/09 19:53 UTC NOAA

KAFW 091953Z 36010KT 10SM BKN130 OVC280 23/14 A2991 RMK AO2 SLP119 T02280139


Station Type Date Time Source
KAFW Decoded METAR 2020/04/09 19:53 UTC NOAA

FORT WORTH ALLIANCE AIRPORT, TX, United States (KAFW) 32-59N 097-19W 233M
Apr 09, 2020 - 03:53 PM EDT / 2020.04.09 1953 UTC
Wind: from the N (360 degrees) at 12 MPH (10 KT):0
Visibility: 10 mile(s):0
Sky conditions: overcast
Temperature: 73.0 F (22.8 C)
Dew Point: 57.0 F (13.9 C)
Relative Humidity: 57%
Pressure (altimeter): 29.91 in. Hg (1012 hPa)
ob: KAFW 091953Z 36010KT 10SM BKN130 OVC280 23/14 A2991 RMK AO2 SLP119 T02280139
cycle: 20

Station Type Date Time Source
KAFW TAF 2020/04/09 18:33 UTC NOAA

TAF KAFW 091730Z 0918/1018 06011KT P6SM BKN200
FM092300 03009KT P6SM SCT050 OVC120
FM101700 07009KT P6SM SKC

Example: see airport list